Airfield :
LOGIN :

Register | Disclaimer

   EN    FR    IT 

 










Legend :    VFR   Marginal VFR   IFR   Intensive IFR   Very Intensive IFR
Visi :
Ceiling :
>= 8 km
>= 3000ft
5 to 8 km
1000 to 3000 ft
1500m to 5 km
500 to 1000 ft
800 to 1500m
200 to 500 ft
< 800m
< 200 ft
Symbols :   Thunderstorms  Fog  Heavy snow  Heavy precipitations  Wind > 20 kt
SIGMETs :     Misc.  Thunderstorms  Icing  Turbulence  Mountain Waves  Volcanic Ashes






- Airport Elevation : 526 ft
- IATA code : LTN


EGGW - London Luton

CURRENT METAR :
  • 300350Z AUTO 13003KT 090V170 3400 BR OVC002 05/05 Q1023

EXPIRED METARs :
  • 300320Z AUTO 09005KT 3400 BR OVC002 05/05 Q1022
  • 300250Z AUTO 08004KT 0750 R07/0750N FG OVC001 05/05 Q1022
  • 300220Z AUTO 07005KT 0300 R07/0550D FG VV/// 05/05 Q1022
  • 300150Z AUTO 06003KT 0250 R07/0700D FG VV/// 05/05 Q1022
  • 300120Z AUTO 02003KT 0300 R25/0400N FG VV/// 05/05 Q1022

TAF TAF EGGW
Valid from the 30 at 00:00 until the 01 at 00:00 UTC


292306Z 3000/3024 VRB03KT 3000 BR BKN002
TEMPO 3000/3010 SCT002 OVC015
PROB40
TEMPO 3000/3009 0300 FG OVC001
BECMG 3010/3013 9999 NSW SCT008
PROB30 3016/3019 7000
BECMG 3019/3022 2500 BR
PROB40 3021/3024 0300 FG VV///
ATIS : +44 1582 395 204



MET'MAP, your aeronautical weather chart ! - Copyright ORBIFLY December 2007 - Disclaimer

ORBIFLY MET'MAP TEAM :

Programming & Development : Alexandra Zaïnal
Original concept : Baudouin d'Aumeries
Technical & hardware support : Manuel Goepfert
Assistance : Marc-Olivier Méhu




SOURCES & CREDITS :

   NOAA